Time;durP1;ratioP1;P1;durP2;ratioP2;P2;SDS_P1;SDS_P2;PMS_P1;PMS_P2;Temp;Humidity;BMP_temperature;BMP_pressure;BME280_temperature;BME280_humidity;BME280_pressure;Samples;Min_cycle;Max_cycle;Signal;HPM_P1;HPM_P2
2022/01/19 02:23:49;;;;;;;5.87;2.83;;;;;;;-6.41;80.25;140723.47;1788915;79;21465;-64
2022/01/19 02:26:22;;;;;;;7.17;2.83;;;;;;;-6.40;80.32;140725.92;1786553;79;21019;-63
2022/01/19 02:42:41;;;;;;;6.33;2.92;;;;;;;-6.40;80.82;140725.92;1713157;83;21490;-65
2022/01/19 02:50:28;;;;;;;11.65;2.98;;;;;;;-6.46;81.27;140711.12;1724192;82;21118;-65
2022/01/19 02:52:55;;;;;;;7.65;2.72;;;;;;;-6.51;81.55;140697.50;1717425;83;21003;-64
2022/01/19 02:55:22;;;;;;;8.70;2.95;;;;;;;-6.56;81.85;140686.41;1725364;82;21522;-63
2022/01/19 02:57:50;;;;;;;10.28;2.60;;;;;;;-6.57;81.98;140683.91;1725334;82;20992;-62
2022/01/19 03:08:46;;;;;;;6.28;3.08;;;;;;;-6.46;82.21;140709.84;1671554;83;21045;-66
2022/01/19 03:11:18;;;;;;;7.53;2.92;;;;;;;-6.47;82.27;140708.63;1724515;83;21032;-66
2022/01/19 03:13:48;;;;;;;8.55;3.67;;;;;;;-6.48;82.30;140706.17;1725133;83;21071;-63
2022/01/19 03:16:21;;;;;;;8.95;3.45;;;;;;;-6.49;82.45;140703.67;1725340;83;21040;-66
2022/01/19 03:18:50;;;;;;;8.40;3.30;;;;;;;-6.48;82.55;140704.94;1724837;83;21121;-66
2022/01/19 03:21:17;;;;;;;8.93;3.72;;;;;;;-6.50;82.69;140700.00;1755259;80;21043;-64
2022/01/19 03:23:44;;;;;;;14.75;6.75;;;;;;;-6.48;82.78;140704.94;1716636;82;21068;-65
2022/01/19 03:26:11;;;;;;;10.70;4.00;;;;;;;-6.50;82.95;140700.00;1755082;81;21043;-66
2022/01/19 03:28:40;;;;;;;18.98;5.37;;;;;;;-6.49;83.04;140703.67;1753983;81;21554;-64
2022/01/19 03:31:08;;;;;;;17.55;6.12;;;;;;;-6.45;82.98;140713.58;1689834;84;20985;-65
2022/01/19 03:33:35;;;;;;;19.48;6.50;;;;;;;-6.44;82.94;140716.03;1754733;82;21071;-64
2022/01/19 03:36:02;;;;;;;12.33;4.40;;;;;;;-6.41;82.91;140723.47;1754405;80;21021;-65
2022/01/19 03:38:29;;;;;;;18.82;6.47;;;;;;;-6.39;82.89;140728.38;1761755;81;21126;-64
2022/01/19 03:40:56;;;;;;;13.65;4.85;;;;;;;-6.39;82.86;140728.38;1772901;81;21024;-63
2022/01/19 03:43:23;;;;;;;13.53;4.90;;;;;;;-6.37;82.88;140733.33;1772832;81;21027;-64
2022/01/19 03:45:58;;;;;;;12.50;5.17;;;;;;;-6.38;82.90;140730.88;1771166;81;21490;-62
2022/01/19 03:48:37;;;;;;;11.95;4.72;;;;;;;-6.38;82.89;140729.66;1770490;81;21122;-65
2022/01/19 03:51:03;;;;;;;12.47;4.83;;;;;;;-6.38;82.92;140730.88;1754200;80;21479;-63
2022/01/19 03:53:30;;;;;;;12.15;4.47;;;;;;;-6.39;82.89;140728.38;1754840;82;21040;-63
2022/01/19 03:55:59;;;;;;;8.83;3.25;;;;;;;-6.47;82.97;140708.63;1754508;81;21032;-62
2022/01/19 03:58:26;;;;;;;9.40;4.05;;;;;;;-6.50;83.16;140701.22;1715279;82;21580;-63
2022/01/19 04:00:56;;;;;;;9.85;3.67;;;;;;;-6.53;83.42;140693.81;1754525;80;21072;-62
2022/01/19 04:06:24;;;;;;;9.00;3.75;;;;;;;-6.59;83.67;140678.97;1754767;82;21032;-61
2022/01/19 04:08:45;;;;;;;9.20;4.25;;;;;;;-6.58;83.88;140682.69;1765554;81;21024;-61
2022/01/19 04:11:13;;;;;;;14.03;4.17;;;;;;;-6.60;83.83;140676.52;1773123;81;21016;-61
2022/01/19 04:14:24;;;;;;;8.58;3.40;;;;;;;-6.65;83.88;140665.39;1773014;80;21035;-62
2022/01/19 04:16:12;;;;;;;7.33;3.92;;;;;;;-6.69;84.07;140654.25;1752791;81;21008;-63
2022/01/19 04:18:39;;;;;;;7.08;3.20;;;;;;;-6.66;84.25;140662.94;1763715;79;21025;-62
2022/01/19 04:21:07;;;;;;;11.05;3.52;;;;;;;-6.65;84.18;140665.39;1720032;82;21584;-64
2022/01/19 04:23:36;;;;;;;7.95;3.35;;;;;;;-6.71;84.24;140650.58;1756950;80;21032;-63
2022/01/19 04:26:03;;;;;;;7.35;3.52;;;;;;;-6.75;84.57;140640.69;1757178;80;21559;-64
2022/01/19 04:28:30;;;;;;;9.75;3.27;;;;;;;-6.79;84.66;140632.06;1720237;82;21087;-65
2022/01/19 04:30:57;;;;;;;7.47;2.90;;;;;;;-6.82;84.90;140623.38;1780480;81;21019;-63
2022/01/19 04:33:26;;;;;;;8.53;3.40;;;;;;;-6.87;85.01;140611.03;1780427;79;21020;-63
2022/01/19 04:36:05;;;;;;;6.87;3.40;;;;;;;-6.92;85.18;140599.95;1780463;81;20999;-63
2022/01/19 04:54:16;;;;;;;9.35;4.03;;;;;;;-7.03;86.21;140572.77;1727179;82;21554;-68
2022/01/19 05:02:59;;;;;;;9.73;4.08;;;;;;;-7.26;88.23;140518.44;1755237;81;20993;-65
2022/01/19 05:05:14;;;;;;;8.95;3.83;;;;;;;-7.26;88.40;140517.20;1752863;82;21103;-67
2022/01/19 05:07:43;;;;;;;10.45;4.03;;;;;;;-7.30;88.71;140508.59;1756445;81;21063;-64
2022/01/19 05:15:36;;;;;;;14.13;5.12;;;;;;;-7.29;89.46;140511.03;1756419;80;20996;-63
2022/01/19 05:18:05;;;;;;;9.93;4.12;;;;;;;-7.25;89.61;140520.94;1757281;82;21029;-65
2022/01/19 05:20:32;;;;;;;8.95;4.10;;;;;;;-7.26;89.78;140518.44;1717080;82;21039;-64
2022/01/19 05:22:59;;;;;;;13.18;4.58;;;;;;;-7.27;90.01;140515.98;1748932;82;21060;-64
2022/01/19 05:25:27;;;;;;;11.33;4.25;;;;;;;-7.26;90.29;140518.44;1699370;83;21100;-64
2022/01/19 05:28:01;;;;;;;12.88;5.30;;;;;;;-7.26;90.52;140518.44;1718746;82;21041;-66
2022/01/19 05:30:30;;;;;;;13.40;4.37;;;;;;;-7.27;90.80;140515.98;1740837;82;21001;-65
2022/01/19 05:32:58;;;;;;;17.25;5.85;;;;;;;-7.22;90.98;140527.09;1713066;82;21028;-66
2022/01/19 05:35:27;;;;;;;16.45;5.42;;;;;;;-7.22;91.20;140528.33;1748356;82;21049;-63
2022/01/19 05:37:55;;;;;;;16.60;5.10;;;;;;;-7.22;91.33;140528.33;1746057;81;21010;-64
2022/01/19 05:40:42;;;;;;;16.40;6.03;;;;;;;-7.18;91.50;140535.72;1746672;81;21052;-63
2022/01/19 05:43:10;;;;;;;14.13;5.58;;;;;;;-7.16;91.61;140540.67;1747619;81;21016;-65
2022/01/19 05:45:36;;;;;;;16.42;6.33;;;;;;;-7.12;91.57;140551.80;1748639;81;21823;-65
2022/01/19 05:48:07;;;;;;;15.13;5.80;;;;;;;-7.05;91.61;140567.81;1696934;84;21023;-66
2022/01/19 05:50:35;;;;;;;14.95;5.67;;;;;;;-6.99;91.53;140582.66;1719132;83;21036;-67
2022/01/19 05:53:03;;;;;;;11.83;5.53;;;;;;;-6.95;91.41;140591.28;1719210;82;21510;-65
2022/01/19 05:55:30;;;;;;;14.87;5.00;;;;;;;-6.87;91.42;140611.03;1724206;81;21111;-63
2022/01/19 05:57:57;;;;;;;13.35;5.47;;;;;;;-6.68;91.30;140656.75;1709312;82;21043;-67
2022/01/19 06:00:25;;;;;;;12.47;5.40;;;;;;;-6.28;90.87;140753.09;1748655;81;21023;-63
2022/01/19 06:02:52;;;;;;;12.10;5.30;;;;;;;-5.81;89.50;140866.78;1748690;81;21508;-66
2022/01/19 06:05:24;;;;;;;13.28;5.40;;;;;;;-5.28;88.03;140996.61;1746110;82;21004;-63
2022/01/19 06:08:17;;;;;;;11.83;6.03;;;;;;;-5.17;85.78;141022.58;1747160;81;21072;-63
2022/01/19 06:10:44;;;;;;;11.63;5.40;;;;;;;-5.30;85.18;140990.42;1745168;82;21132;-63
2022/01/19 06:13:18;;;;;;;10.72;4.97;;;;;;;-5.44;85.01;140957.05;1748952;81;21020;-65
2022/01/19 06:15:47;;;;;;;12.05;5.60;;;;;;;-5.51;84.82;140940.95;1717792;82;21102;-69
2022/01/19 06:18:15;;;;;;;9.48;4.60;;;;;;;-5.42;84.85;140960.73;1691877;84;21012;-68
2022/01/19 06:20:43;;;;;;;13.50;5.25;;;;;;;-5.27;84.45;140999.06;1754028;81;21095;-64
2022/01/19 06:23:10;;;;;;;15.53;5.85;;;;;;;-5.07;83.84;141047.31;1762147;80;20988;-66
2022/01/19 06:25:38;;;;;;;10.65;4.92;;;;;;;-4.75;82.95;141124.05;1760676;81;21061;-67
2022/01/19 06:28:05;;;;;;;15.23;6.17;;;;;;;-4.46;82.22;141193.34;1726086;83;20944;-64
2022/01/19 06:30:32;;;;;;;12.80;5.17;;;;;;;-4.42;81.39;141203.27;1693603;83;21115;-65
2022/01/19 06:32:59;;;;;;;11.88;5.75;;;;;;;-4.42;80.67;141204.50;1703042;84;21001;-64
2022/01/19 06:35:27;;;;;;;12.55;5.67;;;;;;;-4.53;80.34;141177.23;1725695;83;21023;-63
2022/01/19 06:38:10;;;;;;;14.50;6.65;;;;;;;-4.63;80.51;141153.77;1725174;82;21003;-62
2022/01/19 06:40:39;;;;;;;13.93;5.08;;;;;;;-4.69;80.54;141138.88;1724098;83;21015;-65
2022/01/19 06:43:06;;;;;;;10.40;5.12;;;;;;;-4.27;81.12;141240.41;1725861;82;21007;-64
2022/01/19 06:45:33;;;;;;;13.28;5.30;;;;;;;-3.60;80.08;141402.62;1701022;83;21091;-64
2022/01/19 06:47:59;;;;;;;13.43;5.15;;;;;;;-3.47;78.10;141433.59;1720428;82;20952;-64
2022/01/19 06:50:28;;;;;;;11.55;4.97;;;;;;;-3.63;77.76;141395.20;1690756;83;21052;-65
2022/01/19 06:52:54;;;;;;;10.80;4.42;;;;;;;-3.80;77.02;141353.08;1720411;82;20995;-62
2022/01/19 06:55:21;;;;;;;14.93;5.37;;;;;;;-4.19;77.28;141260.20;1721032;82;21011;-66
2022/01/19 06:57:49;;;;;;;15.65;5.60;;;;;;;-4.44;78.12;141198.31;1718035;83;21027;-63
2022/01/19 07:00:16;;;;;;;12.98;4.65;;;;;;;-4.50;78.56;141183.42;1721572;82;21012;-68
2022/01/19 07:03:01;;;;;;;14.85;6.17;;;;;;;-4.56;78.83;141168.59;1726039;82;21007;-63
2022/01/19 07:05:49;;;;;;;14.87;5.45;;;;;;;-4.59;79.40;141162.41;1697354;84;21007;-62
2022/01/19 07:08:18;;;;;;;11.93;5.53;;;;;;;-4.44;79.21;141198.31;1681100;85;21616;-68
2022/01/19 07:10:44;;;;;;;13.22;5.55;;;;;;;-4.50;79.24;141184.70;1706813;83;21474;-63
2022/01/19 07:13:12;;;;;;;16.57;5.65;;;;;;;-4.56;79.34;141168.59;1717256;83;21483;-63
2022/01/19 07:15:40;;;;;;;12.18;5.30;;;;;;;-4.65;79.73;141147.58;1717410;82;21031;-64
2022/01/19 07:18:08;;;;;;;10.70;5.37;;;;;;;-4.60;80.08;141161.19;1718004;82;21056;-62
2022/01/19 07:20:34;;;;;;;9.45;4.80;;;;;;;-4.44;80.27;141198.31;1712620;83;21092;-69
2022/01/19 07:23:01;;;;;;;11.50;5.10;;;;;;;-4.37;79.88;141215.66;1708245;82;21072;-71
2022/01/19 07:25:29;;;;;;;10.98;4.62;;;;;;;-4.29;79.76;141235.44;1709602;83;21463;-66
2022/01/19 07:27:57;;;;;;;9.48;4.75;;;;;;;-4.26;79.72;141241.63;1707953;82;21036;-63
2022/01/19 07:30:24;;;;;;;14.18;5.17;;;;;;;-4.25;79.74;141245.37;1709063;84;21003;-64
2022/01/19 07:32:52;;;;;;;11.95;4.90;;;;;;;-4.16;79.83;141267.63;1709216;84;21040;-66
2022/01/19 07:35:20;;;;;;;13.40;5.42;;;;;;;-4.00;79.75;141306.00;1709979;84;21035;-66
2022/01/19 07:37:48;;;;;;;12.90;4.72;;;;;;;-3.81;79.28;141351.84;1708291;83;21060;-71
2022/01/19 07:40:16;;;;;;;10.10;4.22;;;;;;;-3.74;78.77;141369.20;1682963;84;21055;-62
2022/01/19 07:42:43;;;;;;;10.03;4.40;;;;;;;-3.66;78.28;141386.50;1752511;80;20987;-64
2022/01/19 07:45:12;;;;;;;11.03;4.47;;;;;;;-3.66;78.00;141386.50;1752474;82;21071;-65
2022/01/19 07:47:41;;;;;;;9.40;3.95;;;;;;;-3.65;77.84;141389.00;1770749;80;21541;-65
2022/01/19 07:50:13;;;;;;;12.37;4.25;;;;;;;-3.57;77.55;141408.81;1766965;81;21039;-64
2022/01/19 07:52:42;;;;;;;12.25;4.60;;;;;;;-3.56;77.51;141412.56;1760242;81;21021;-62
2022/01/19 07:55:23;;;;;;;11.00;4.83;;;;;;;-3.47;77.10;141433.59;1739346;81;21613;-64
2022/01/19 07:57:54;;;;;;;11.10;4.90;;;;;;;-3.42;76.77;141444.75;1755357;81;21022;-64
2022/01/19 08:00:26;;;;;;;12.33;4.58;;;;;;;-3.42;76.73;141445.98;1725209;82;21032;-63
2022/01/19 08:02:52;;;;;;;10.20;4.53;;;;;;;-3.36;77.05;141460.88;1750155;79;21037;-64
2022/01/19 08:05:23;;;;;;;14.20;5.20;;;;;;;-3.23;76.81;141490.59;1754733;80;20993;-64
2022/01/19 08:07:52;;;;;;;12.90;5.17;;;;;;;-3.16;76.58;141507.94;1756659;80;21087;-63
2022/01/19 08:10:18;;;;;;;10.05;4.58;;;;;;;-3.10;76.21;141522.84;1769700;80;21138;-64
2022/01/19 08:12:45;;;;;;;12.88;4.22;;;;;;;-2.98;76.00;141551.33;1781334;80;21070;-65
2022/01/19 08:15:12;;;;;;;10.75;5.15;;;;;;;-2.75;75.56;141607.11;1760021;81;21526;-64
2022/01/19 08:17:40;;;;;;;13.68;4.72;;;;;;;-2.44;75.44;141684.02;1767443;79;21039;-64
2022/01/19 08:20:10;;;;;;;11.43;4.72;;;;;;;-1.99;74.38;141793.14;1763345;80;21064;-63
2022/01/19 08:22:36;;;;;;;10.32;4.97;;;;;;;-1.35;73.23;141947.03;1749795;81;21418;-65
2022/01/19 08:25:20;;;;;;;8.85;4.72;;;;;;;-0.85;70.62;142068.73;1759877;80;21499;-63
2022/01/19 08:27:47;;;;;;;12.60;5.53;;;;;;;0.10;69.77;142299.88;1768621;80;21080;-64
2022/01/19 08:30:16;;;;;;;11.63;5.90;;;;;;;0.96;66.52;142508.75;1766021;80;21487;-64
2022/01/19 08:32:43;;;;;;;12.90;5.22;;;;;;;1.74;64.02;142697.92;1767632;81;21069;-63
2022/01/19 08:35:24;;;;;;;12.18;4.62;;;;;;;2.39;62.80;142856.05;1737107;81;21047;-65
2022/01/19 08:38:05;;;;;;;10.90;5.50;;;;;;;2.99;58.92;143003.08;1695886;82;21057;-64
2022/01/19 08:40:34;;;;;;;14.75;5.72;;;;;;;3.35;58.47;143089.09;1707581;84;21020;-63
2022/01/19 08:43:08;;;;;;;14.05;5.53;;;;;;;3.37;56.98;143094.09;1760561;81;21081;-64
2022/01/19 08:45:36;;;;;;;15.23;5.25;;;;;;;3.33;55.65;143084.09;1772392;81;21118;-64
2022/01/19 08:48:04;;;;;;;11.35;4.90;;;;;;;3.25;55.21;143065.41;1772780;81;21055;-64
2022/01/19 08:50:36;;;;;;;11.73;5.20;;;;;;;2.54;54.20;142892.19;1765234;80;21036;-64
2022/01/19 08:53:04;;;;;;;13.30;5.10;;;;;;;1.93;55.68;142745.25;1763157;80;21084;-64
2022/01/19 08:55:45;;;;;;;12.25;5.87;;;;;;;1.46;56.21;142630.70;1764931;79;21667;-63
2022/01/19 08:58:13;;;;;;;12.80;4.85;;;;;;;1.53;57.76;142646.91;1773584;81;21072;-63
2022/01/19 09:00:43;;;;;;;11.97;4.97;;;;;;;1.74;56.52;142697.92;1773703;81;21090;-65
2022/01/19 09:03:11;;;;;;;10.85;5.55;;;;;;;1.86;55.97;142727.81;1753479;81;21009;-65
2022/01/19 09:05:37;;;;;;;10.78;5.53;;;;;;;1.85;56.09;142725.30;1711604;83;21546;-63
2022/01/19 09:08:05;;;;;;;12.30;5.17;;;;;;;1.78;55.99;142707.91;1773762;81;21015;-64
2022/01/19 09:10:32;;;;;;;10.50;4.30;;;;;;;1.89;55.88;142735.28;1768122;81;21227;-63
2022/01/19 09:12:59;;;;;;;13.75;4.70;;;;;;;1.95;55.77;142748.97;1762029;79;21078;-64
2022/01/19 09:15:27;;;;;;;11.88;4.87;;;;;;;1.91;55.75;142739.03;1712078;84;21538;-64
2022/01/19 09:17:54;;;;;;;15.40;6.30;;;;;;;1.92;55.97;142741.50;1747798;81;21064;-64
2022/01/19 09:20:21;;;;;;;13.65;5.97;;;;;;;2.01;55.60;142763.94;1711815;84;21098;-63
2022/01/19 09:22:49;;;;;;;9.38;4.55;;;;;;;1.90;55.37;142737.75;1763185;80;21019;-64
2022/01/19 09:25:16;;;;;;;9.63;4.67;;;;;;;1.58;55.25;142658.06;1725183;82;20996;-64
2022/01/19 09:27:42;;;;;;;11.95;5.20;;;;;;;1.54;55.68;142648.14;1725106;82;21040;-64
2022/01/19 09:30:18;;;;;;;11.78;4.92;;;;;;;1.36;54.88;142605.81;1725310;83;21035;-64
2022/01/19 09:32:54;;;;;;;10.03;4.75;;;;;;;1.24;55.77;142575.94;1722880;82;21063;-63
2022/01/19 09:35:22;;;;;;;13.43;5.33;;;;;;;1.34;55.50;142600.83;1723852;83;21108;-63
2022/01/19 09:37:43;;;;;;;9.60;4.35;;;;;;;1.22;55.49;142570.95;1719505;83;21575;-64
2022/01/19 09:40:11;;;;;;;12.60;5.15;;;;;;;1.14;55.73;142551.06;1724889;82;21110;-64
2022/01/19 09:42:38;;;;;;;10.00;4.55;;;;;;;1.14;55.79;142551.06;1724960;83;21086;-64
2022/01/19 09:45:05;;;;;;;9.33;4.78;;;;;;;1.04;55.91;142528.69;1723711;83;21032;-63
2022/01/19 09:47:32;;;;;;;12.63;4.80;;;;;;;1.03;56.06;142526.17;1724594;82;21031;-64
2022/01/19 09:49:58;;;;;;;13.65;5.08;;;;;;;1.00;56.02;142517.48;1723694;83;21016;-63
2022/01/19 09:52:25;;;;;;;10.48;5.00;;;;;;;1.10;56.25;142541.12;1719453;82;21605;-64
2022/01/19 09:54:55;;;;;;;8.88;3.90;;;;;;;1.14;56.11;142551.06;1722558;82;22268;-65
2022/01/19 09:57:23;;;;;;;10.18;4.72;;;;;;;1.07;55.83;142536.16;1723579;83;22205;-63
2022/01/19 09:59:49;;;;;;;11.73;4.65;;;;;;;0.73;56.65;142451.53;1724575;83;22209;-63
2022/01/19 10:02:17;;;;;;;9.50;4.40;;;;;;;0.62;57.07;142426.67;1723792;83;21087;-63
2022/01/19 10:04:47;;;;;;;17.15;5.35;;;;;;;0.37;57.61;142365.73;1723753;83;21563;-63
2022/01/19 10:07:24;;;;;;;14.47;5.33;;;;;;;0.06;58.56;142289.91;1725145;83;20999;-67
2022/01/19 10:10:07;;;;;;;21.70;7.58;;;;;;;-0.05;59.27;142262.53;1725219;82;21611;-63
2022/01/19 10:18:33;;;;;;;15.98;5.70;;;;;;;0.09;59.94;142297.36;1663799;86;21036;-62
2022/01/19 10:21:16;;;;;;;10.05;4.95;;;;;;;0.11;60.17;142302.34;1648141;86;21119;-62
2022/01/19 10:23:52;;;;;;;11.50;5.03;;;;;;;0.15;60.29;142312.30;1669116;86;21060;-64
2022/01/19 10:26:28;;;;;;;8.93;5.03;;;;;;;0.18;60.52;142319.75;1672384;86;21103;-63
2022/01/19 10:29:08;;;;;;;14.58;4.65;;;;;;;0.08;60.87;142294.89;1672722;86;21110;-62
2022/01/19 10:31:38;;;;;;;8.57;4.23;;;;;;;0.23;61.17;142330.95;1672682;86;21032;-63
2022/01/19 10:34:23;;;;;;;10.25;4.42;;;;;;;0.48;60.92;142391.83;1643661;86;21070;-62
2022/01/19 10:36:56;;;;;;;11.33;4.62;;;;;;;0.60;60.52;142421.69;1624339;86;21620;-63
2022/01/19 10:40:04;;;;;;;;;;;;;;;;;;;;;
2022/01/19 10:42:27;;;;;;;14.53;5.58;;;;;;;0.30;61.24;142347.08;1610607;86;21094;-63
2022/01/19 10:45:07;;;;;;;13.35;5.10;;;;;;;0.30;61.64;142348.31;1660586;86;21009;-63
2022/01/19 10:47:56;;;;;;;12.27;4.83;;;;;;;0.43;61.80;142379.41;1659672;86;21140;-62
2022/01/19 10:50:30;;;;;;;12.55;5.30;;;;;;;0.43;61.98;142379.41;1661570;86;21107;-63
2022/01/19 10:53:00;;;;;;;10.45;4.97;;;;;;;0.51;62.14;142399.33;1661805;86;21028;-63
2022/01/19 10:55:35;;;;;;;12.88;4.97;;;;;;;0.60;62.48;142421.69;1661542;86;21087;-64
2022/01/19 10:58:02;;;;;;;14.83;5.00;;;;;;;0.69;63.13;142442.86;1647872;86;21083;-64
2022/01/19 11:00:34;;;;;;;12.05;5.30;;;;;;;0.79;63.62;142466.45;1658490;86;21139;-64
2022/01/19 11:03:20;;;;;;;12.90;4.37;;;;;;;0.89;63.96;142491.38;1661168;86;21044;-63
2022/01/19 11:05:59;;;;;;;11.28;5.42;;;;;;;1.01;64.60;142519.95;1661740;86;21202;-62
2022/01/19 11:08:29;;;;;;;11.43;4.37;;;;;;;0.78;65.92;142463.97;1655842;86;21099;-64
2022/01/19 11:11:01;;;;;;;12.93;5.35;;;;;;;0.51;67.11;142399.33;1660101;86;21116;-63
2022/01/19 11:13:39;;;;;;;10.40;3.98;;;;;;;0.45;67.73;142383.16;1659911;86;21062;-64
2022/01/19 11:16:13;;;;;;;10.90;4.62;;;;;;;0.49;68.41;142393.11;1657145;86;21639;-63
2022/01/19 11:18:51;;;;;;;13.45;5.60;;;;;;;0.40;69.16;142371.95;1660903;86;22222;-62
2022/01/19 11:21:22;;;;;;;11.48;4.75;;;;;;;0.24;69.93;142332.19;1663870;86;21102;-63
2022/01/19 11:24:05;;;;;;;13.88;4.80;;;;;;;0.24;70.45;142332.19;1663039;86;21122;-62
2022/01/19 11:26:33;;;;;;;18.35;4.97;;;;;;;0.31;70.62;142350.83;1655640;86;21069;-63
2022/01/19 11:29:19;;;;;;;9.70;4.35;;;;;;;0.36;70.71;142362.03;1664049;86;21102;-64
2022/01/19 11:31:48;;;;;;;10.32;4.45;;;;;;;0.54;70.68;142405.55;1677103;85;20987;-63
2022/01/19 11:34:16;;;;;;;8.65;4.03;;;;;;;0.87;70.26;142486.39;1677224;85;21605;-63
2022/01/19 11:36:43;;;;;;;10.60;4.70;;;;;;;1.04;69.76;142528.69;1648200;85;21607;-65
2022/01/19 11:39:21;;;;;;;10.98;4.87;;;;;;;1.07;69.38;142534.91;1675919;84;21108;-62
2022/01/19 11:42:00;;;;;;;13.18;5.33;;;;;;;0.95;69.27;142505.05;1675809;85;21105;-63
2022/01/19 11:44:35;;;;;;;11.10;5.05;;;;;;;0.86;69.64;142483.88;1671752;85;21124;-62
2022/01/19 11:47:21;;;;;;;10.82;4.37;;;;;;;0.88;69.87;142488.86;1679247;84;21496;-64
2022/01/19 11:49:59;;;;;;;9.98;4.65;;;;;;;0.97;69.92;142510.03;1661427;86;21071;-64
2022/01/19 11:52:41;;;;;;;7.97;4.35;;;;;;;0.89;70.11;142491.38;1662888;86;21106;-63
2022/01/19 11:55:25;;;;;;;12.30;4.75;;;;;;;1.04;70.33;142528.69;1663387;86;22296;-63
2022/01/19 11:58:17;;;;;;;11.50;4.80;;;;;;;1.14;70.19;142551.06;1662982;86;21126;-64
2022/01/19 12:00:49;;;;;;;;;;;;;;;1.10;70.19;142541.12;1665568;86;21118;-63
2022/01/19 12:03:29;;;;;;;10.20;4.70;;;;;;;1.06;70.32;142532.39;1663698;86;20156;-63
2022/01/19 12:05:57;;;;;;;12.55;4.40;;;;;;;0.84;70.92;142478.89;1664139;86;21136;-64
2022/01/19 12:08:38;;;;;;;10.70;4.75;;;;;;;0.62;71.68;142426.67;1665710;86;21061;-64
2022/01/19 12:11:18;;;;;;;11.12;5.45;;;;;;;0.48;72.21;142390.59;1663573;86;21123;-63
2022/01/19 12:14:16;;;;;;;11.75;5.30;;;;;;;0.48;72.68;142390.59;1678223;84;21061;-63
2022/01/19 12:17:04;;;;;;;10.88;4.78;;;;;;;0.62;72.80;142425.44;1680303;85;21152;-63
2022/01/19 12:19:40;;;;;;;13.75;5.35;;;;;;;0.68;72.76;142439.09;1680315;85;21120;-64
2022/01/19 12:22:23;;;;;;;12.33;5.37;;;;;;;0.55;72.85;142409.25;1682849;84;22268;-64
2022/01/19 12:24:59;;;;;;;12.68;5.50;;;;;;;0.46;73.44;142386.89;1683947;84;21096;-64
2022/01/19 12:27:30;;;;;;;13.65;6.10;;;;;;;0.42;73.88;142378.16;1679781;84;21163;-63
2022/01/19 12:30:08;;;;;;;13.10;5.67;;;;;;;0.40;74.23;142373.19;1682292;85;20978;-63
2022/01/19 12:32:54;;;;;;;13.50;6.22;;;;;;;0.31;74.55;142349.59;1683038;85;21025;-63
2022/01/19 12:35:27;;;;;;;11.08;5.12;;;;;;;0.36;74.98;142362.03;1683349;84;21118;-62
2022/01/19 12:37:57;;;;;;;11.78;5.35;;;;;;;0.31;75.31;142349.59;1684790;84;21039;-64
2022/01/19 12:40:33;;;;;;;15.00;5.15;;;;;;;0.03;76.34;142282.47;1675362;85;21023;-63
2022/01/19 12:43:07;;;;;;;10.70;5.50;;;;;;;-0.15;77.28;142238.97;1677337;84;21090;-63
2022/01/19 12:45:51;;;;;;;13.40;6.00;;;;;;;-0.24;78.12;142217.81;1678973;85;21615;-62
2022/01/19 12:48:41;;;;;;;14.23;5.78;;;;;;;-0.24;78.60;142216.58;1679029;84;21037;-63
2022/01/19 12:51:34;;;;;;;12.70;5.72;;;;;;;-0.26;78.97;142211.59;1676435;86;21011;-64
2022/01/19 12:54:00;;;;;;;13.93;5.50;;;;;;;-0.26;79.61;142211.59;1679421;84;22319;-62
2022/01/19 12:56:27;;;;;;;13.25;6.45;;;;;;;-0.30;79.83;142202.91;1670435;86;21131;-62
2022/01/19 12:58:59;;;;;;;10.98;5.58;;;;;;;-0.25;80.19;142215.34;1663515;86;21106;-63
2022/01/19 13:01:26;;;;;;;11.70;5.95;;;;;;;-0.24;80.25;142216.58;1641854;87;21020;-64
2022/01/19 13:03:52;;;;;;;12.13;6.00;;;;;;;-0.34;80.59;142192.95;1663067;86;21095;-62
2022/01/19 13:06:24;;;;;;;10.48;5.37;;;;;;;-0.33;80.98;142195.47;1669624;85;21085;-62
2022/01/19 13:09:07;;;;;;;19.62;7.10;;;;;;;-0.30;81.29;142201.69;1675566;86;21142;-62
2022/01/19 13:11:38;;;;;;;17.25;6.40;;;;;;;-0.30;81.36;142201.69;1673833;86;21611;-63
2022/01/19 13:14:06;;;;;;;16.02;5.65;;;;;;;-0.29;81.72;142204.16;1673368;85;21079;-64
2022/01/19 13:16:44;;;;;;;14.30;7.00;;;;;;;-0.19;81.84;142227.77;1648413;86;21145;-64
2022/01/19 13:19:15;;;;;;;21.57;8.20;;;;;;;-0.16;81.67;142235.22;1629377;88;20997;-63
2022/01/19 13:21:50;;;;;;;17.60;8.38;;;;;;;-0.10;81.80;142250.11;1648017;87;21051;-64
2022/01/19 13:24:27;;;;;;;17.15;6.80;;;;;;;-0.15;81.73;142237.69;1648027;87;21036;-64
2022/01/19 13:26:59;;;;;;;15.50;7.97;;;;;;;-0.31;82.10;142200.41;1667437;85;21094;-63
2022/01/19 13:29:47;;;;;;;17.73;7.97;;;;;;;-0.40;82.60;142178.06;1675624;86;21051;-63
2022/01/19 13:32:15;;;;;;;15.25;7.47;;;;;;;-0.34;82.92;142192.95;1674687;86;21146;-63
2022/01/19 13:35:02;;;;;;;13.13;7.00;;;;;;;-0.25;82.86;142215.34;1675981;85;21005;-64
2022/01/19 13:37:48;;;;;;;12.82;6.20;;;;;;;-0.18;82.86;142230.23;1673513;85;21513;-63
2022/01/19 13:40:28;;;;;;;13.28;6.85;;;;;;;-0.20;82.82;142226.53;1675781;85;21123;-64
2022/01/19 13:43:03;;;;;;;15.00;8.07;;;;;;;-0.26;83.15;142211.59;1674890;86;21062;-62
2022/01/19 13:48:28;;;;;;;15.55;7.78;;;;;;;-0.42;83.62;142173.09;1675533;86;21174;-64
2022/01/19 13:50:54;;;;;;;13.45;7.50;;;;;;;-0.36;83.84;142186.75;1675482;85;21511;-64
2022/01/19 13:53:38;;;;;;;;;;;;;;;-0.35;84.02;142190.50;1655370;85;21112;-62
2022/01/19 13:56:09;;;;;;;14.50;7.75;;;;;;;-0.24;84.08;142217.81;1675342;85;20168;-62
2022/01/19 13:58:50;;;;;;;16.00;8.20;;;;;;;-0.17;83.96;142232.75;1675448;86;21114;-63
2022/01/19 14:01:23;;;;;;;14.30;7.45;;;;;;;-0.18;83.77;142231.47;1675126;86;21097;-62
2022/01/19 14:03:57;;;;;;;15.13;7.92;;;;;;;-0.18;83.97;142231.47;1657659;86;21049;-64
2022/01/19 14:06:37;;;;;;;15.63;8.70;;;;;;;-0.17;83.91;142232.75;1677074;85;21091;-63
2022/01/19 14:09:20;;;;;;;16.60;8.85;;;;;;;-0.23;83.91;142219.03;1676076;85;21027;-63
2022/01/19 14:12:06;;;;;;;19.87;8.28;;;;;;;-0.25;84.20;142215.34;1675631;86;21097;-63
2022/01/19 14:14:42;;;;;;;16.80;8.35;;;;;;;-0.17;84.32;142232.75;1674124;86;21101;-64
2022/01/19 14:17:13;;;;;;;17.92;9.15;;;;;;;-0.11;84.30;142247.64;1654751;86;21170;-63
2022/01/19 14:19:48;;;;;;;19.85;9.50;;;;;;;-0.06;84.07;142261.30;1662647;86;21189;-62
2022/01/19 14:22:27;;;;;;;15.72;8.98;;;;;;;-0.08;84.14;142255.09;1662734;84;21552;-62
2022/01/19 14:24:58;;;;;;;16.93;8.98;;;;;;;-0.18;84.13;142230.23;1661183;86;22288;-64
2022/01/19 14:27:30;;;;;;;;;;;;;;;-0.25;84.51;142215.34;1663711;84;21287;-62
2022/01/19 14:30:08;;;;;;;15.67;9.33;;;;;;;-0.31;84.83;142200.41;1660293;86;20482;-63
2022/01/19 14:32:47;;;;;;;17.67;9.63;;;;;;;-0.30;85.11;142202.91;1660823;86;22329;-66
2022/01/19 14:35:42;;;;;;;15.93;8.78;;;;;;;-0.22;85.17;142222.78;1644222;86;21740;-62
2022/01/19 14:38:32;;;;;;;18.75;10.18;;;;;;;-0.14;85.04;142240.19;1661289;84;21154;-62
2022/01/19 14:41:04;;;;;;;18.52;9.30;;;;;;;-0.10;85.00;142250.11;1662617;86;21074;-62
2022/01/19 14:43:57;;;;;;;18.25;9.58;;;;;;;-0.09;84.85;142252.63;1665140;84;21071;-62
2022/01/19 14:46:40;;;;;;;19.48;10.28;;;;;;;-0.05;84.93;142262.53;1662281;86;21070;-63
2022/01/19 14:49:08;;;;;;;21.33;9.65;;;;;;;-0.03;84.76;142267.52;1663087;85;21062;-63
2022/01/19 14:51:41;;;;;;;19.37;11.08;;;;;;;-0.05;84.63;142263.81;1663026;85;21595;-63
2022/01/19 14:54:11;;;;;;;18.23;9.90;;;;;;;-0.01;84.44;142273.73;1674716;84;21054;-63
2022/01/19 14:56:44;;;;;;;20.70;10.35;;;;;;;-0.01;84.14;142272.50;1663373;86;21063;-63
2022/01/19 14:59:22;;;;;;;18.60;9.10;;;;;;;-0.03;83.98;142268.75;1663188;86;21102;-62
2022/01/19 15:01:58;;;;;;;14.93;8.75;;;;;;;-0.03;83.87;142267.52;1663248;86;21051;-62
2022/01/19 15:04:25;;;;;;;18.02;10.95;;;;;;;-0.20;83.51;142225.25;1664660;84;21095;-63
2022/01/19 15:06:53;;;;;;;20.08;10.85;;;;;;;-0.45;84.14;142165.64;1680250;84;21022;-64
2022/01/19 15:09:20;;;;;;;18.87;10.23;;;;;;;-0.53;84.56;142145.77;1662811;85;21146;-63
2022/01/19 15:11:47;;;;;;;17.87;10.03;;;;;;;-0.50;84.86;142154.45;1663682;84;21149;-62
2022/01/19 15:14:15;;;;;;;18.95;10.32;;;;;;;-0.45;84.89;142165.64;1661609;86;21095;-62
2022/01/19 15:16:42;;;;;;;19.12;10.70;;;;;;;-0.42;84.92;142173.09;1658024;86;21135;-63